createdAt,value
2022-11-03T00:01:36.027Z,10.25
2022-11-03T00:04:05.565Z,9.00
2022-11-03T00:06:33.638Z,15.40
2022-11-03T00:09:03.271Z,9.43
2022-11-03T00:11:33.979Z,7.65
2022-11-03T00:14:02.156Z,10.85
2022-11-03T00:16:30.391Z,13.93
2022-11-03T00:18:58.512Z,9.07
2022-11-03T00:21:27.771Z,9.15
2022-11-03T00:23:56.092Z,11.40
2022-11-03T00:26:25.822Z,12.20
2022-11-03T00:28:54.918Z,10.93
2022-11-03T00:31:24.600Z,10.73
2022-11-03T00:33:52.768Z,11.07
2022-11-03T00:36:22.354Z,8.95
2022-11-03T00:38:52.192Z,11.38
2022-11-03T00:41:21.980Z,14.43
2022-11-03T00:43:50.687Z,11.70
2022-11-03T00:46:20.185Z,10.60
2022-11-03T00:48:48.477Z,9.35
2022-11-03T00:51:18.190Z,9.60
2022-11-03T00:53:47.565Z,11.38
2022-11-03T00:56:18.459Z,11.93
2022-11-03T00:58:46.531Z,17.38
2022-11-03T01:01:16.711Z,10.60
2022-11-03T01:04:06.969Z,10.65
2022-11-03T01:06:50.580Z,12.23
2022-11-03T01:09:19.216Z,13.43
2022-11-03T01:11:56.751Z,13.18
2022-11-03T01:14:25.539Z,8.35
2022-11-03T01:16:53.441Z,14.27
2022-11-03T01:19:21.790Z,11.43
2022-11-03T01:21:49.681Z,9.77
2022-11-03T01:24:17.623Z,7.60
2022-11-03T01:26:45.564Z,12.77
2022-11-03T01:29:14.932Z,9.82
2022-11-03T01:31:42.931Z,8.45
2022-11-03T01:34:15.057Z,8.20
2022-11-03T01:36:42.973Z,7.93
2022-11-03T01:39:12.651Z,7.82
2022-11-03T01:41:41.667Z,8.63
2022-11-03T01:44:38.512Z,10.02
2022-11-03T01:47:15.089Z,16.33
2022-11-03T01:49:47.680Z,8.95
2022-11-03T01:52:20.315Z,14.85
2022-11-03T01:54:52.931Z,12.40
2022-11-03T01:57:25.503Z,7.57
2022-11-03T01:59:58.384Z,10.30
2022-11-03T02:02:26.774Z,10.65
2022-11-03T02:04:56.670Z,7.63
2022-11-03T02:07:30.513Z,13.03
2022-11-03T02:09:58.478Z,9.02
2022-11-03T02:12:26.963Z,8.85
2022-11-03T02:14:59.540Z,10.98
2022-11-03T02:17:30.087Z,8.88
2022-11-03T02:20:01.102Z,8.52
2022-11-03T02:22:52.531Z,11.95
2022-11-03T02:25:34.853Z,13.20
2022-11-03T02:28:03.952Z,10.13
2022-11-03T02:30:39.406Z,11.63
2022-11-03T02:33:18.406Z,11.40
2022-11-03T02:35:52.310Z,10.30
2022-11-03T02:38:24.038Z,9.95
2022-11-03T02:40:56.626Z,10.73
2022-11-03T02:43:26.806Z,10.90
2022-11-03T02:45:56.460Z,12.43
2022-11-03T02:48:24.377Z,13.18
2022-11-03T02:50:52.392Z,7.70
2022-11-03T02:53:21.071Z,10.82
2022-11-03T02:55:58.319Z,11.98
2022-11-03T02:58:34.116Z,7.28
2022-11-03T03:01:11.904Z,13.23
2022-11-03T03:03:43.219Z,10.38
2022-11-03T03:06:14.764Z,10.35
2022-11-03T03:08:46.809Z,13.90
2022-11-03T03:11:16.192Z,8.52
2022-11-03T03:13:45.543Z,10.27
2022-11-03T03:16:17.629Z,7.00
2022-11-03T03:18:51.938Z,10.73
2022-11-03T03:21:24.446Z,10.98
2022-11-03T03:23:59.292Z,8.13
2022-11-03T03:26:34.221Z,8.10
2022-11-03T03:29:08.402Z,10.82
2022-11-03T03:31:40.312Z,7.72
2022-11-03T03:34:23.595Z,9.30
2022-11-03T03:36:59.728Z,7.22
2022-11-03T03:39:31.189Z,13.73
2022-11-03T03:42:02.751Z,10.52
2022-11-03T03:44:31.912Z,7.25
2022-11-03T03:47:04.193Z,10.18
2022-11-03T03:49:32.055Z,7.20
2022-11-03T03:52:00.499Z,11.90
2022-11-03T03:54:28.361Z,11.47
2022-11-03T03:57:02.835Z,10.18
2022-11-03T03:59:30.955Z,9.65
2022-11-03T04:01:59.556Z,14.07
2022-11-03T04:04:27.648Z,11.18
2022-11-03T04:07:09.501Z,10.85
2022-11-03T04:09:37.441Z,9.90
2022-11-03T04:12:26.295Z,11.63
2022-11-03T04:15:11.704Z,8.63
2022-11-03T04:18:00.223Z,13.27
2022-11-03T04:20:46.151Z,8.80
2022-11-03T04:23:14.075Z,9.32
2022-11-03T04:25:43.070Z,7.68
2022-11-03T04:28:15.284Z,7.68
2022-11-03T04:30:43.654Z,9.00
2022-11-03T04:33:16.060Z,6.90
2022-11-03T04:35:45.321Z,11.63
2022-11-03T04:38:23.133Z,8.68
2022-11-03T04:40:54.835Z,9.10
2022-11-03T04:43:31.199Z,9.13
2022-11-03T04:45:59.412Z,7.03
2022-11-03T04:48:29.863Z,8.97
2022-11-03T04:51:01.239Z,10.60
2022-11-03T04:53:33.507Z,9.50
2022-11-03T04:56:06.151Z,9.18
2022-11-03T04:58:37.426Z,8.30
2022-11-03T05:01:10.126Z,11.07
2022-11-03T05:03:40.087Z,7.37
2022-11-03T05:06:15.132Z,10.90
2022-11-03T05:08:45.060Z,12.60
2022-11-03T05:11:27.191Z,7.72
2022-11-03T05:14:00.451Z,7.78
2022-11-03T05:16:29.295Z,14.90
2022-11-03T05:18:57.951Z,11.15
2022-11-03T05:21:28.638Z,12.60
2022-11-03T05:23:59.677Z,9.15
2022-11-03T05:26:31.997Z,10.40
2022-11-03T05:29:04.313Z,7.70
2022-11-03T05:31:35.452Z,11.45
2022-11-03T05:34:36.105Z,12.75
2022-11-03T05:37:26.928Z,9.77
2022-11-03T05:39:57.802Z,7.10
2022-11-03T05:42:33.884Z,7.65
2022-11-03T05:45:05.749Z,12.90
2022-11-03T05:47:38.190Z,7.38
2022-11-03T05:50:17.633Z,9.38
2022-11-03T05:52:47.317Z,9.95
2022-11-03T05:55:25.195Z,12.23
2022-11-03T05:57:53.551Z,9.13
2022-11-03T06:00:31.008Z,7.75
2022-11-03T06:03:00.235Z,7.55
2022-11-03T06:05:29.034Z,6.82
2022-11-03T06:07:58.925Z,9.20
2022-11-03T06:10:31.137Z,7.33
2022-11-03T06:13:03.548Z,8.83
2022-11-03T06:15:34.702Z,7.22
2022-11-03T06:18:11.696Z,8.88
2022-11-03T06:20:40.780Z,5.72
2022-11-03T06:23:13.191Z,7.28
2022-11-03T06:25:42.526Z,5.45
2022-11-03T06:28:16.425Z,10.55
2022-11-03T06:30:46.408Z,6.40
2022-11-03T06:33:17.376Z,12.02
2022-11-03T06:35:45.637Z,7.90
2022-11-03T06:38:19.183Z,10.15
2022-11-03T06:40:50.195Z,9.43
2022-11-03T06:43:24.722Z,10.38
2022-11-03T06:45:55.875Z,7.65
2022-11-03T06:48:27.020Z,8.75
2022-11-03T06:50:55.907Z,5.70
2022-11-03T06:53:27.697Z,10.43
2022-11-03T06:55:55.945Z,8.48
2022-11-03T06:58:37.209Z,5.78
2022-11-03T07:01:19.680Z,7.80
2022-11-03T07:03:48.103Z,9.55
2022-11-03T07:06:21.690Z,11.80
2022-11-03T07:08:52.624Z,6.18
2022-11-03T07:11:22.462Z,7.78
2022-11-03T07:13:53.493Z,9.88
2022-11-03T07:16:30.180Z,10.98
2022-11-03T07:19:00.929Z,7.55
2022-11-03T07:21:38.993Z,10.10
2022-11-03T07:24:16.995Z,5.32
2022-11-03T07:26:44.913Z,8.88
2022-11-03T07:29:21.297Z,11.05
2022-11-03T07:31:52.508Z,9.55
2022-11-03T07:34:23.246Z,8.25
2022-11-03T07:36:55.601Z,6.18
2022-11-03T07:39:24.595Z,10.63
2022-11-03T07:41:53.080Z,8.45
2022-11-03T07:44:22.159Z,8.48
2022-11-03T07:46:52.115Z,9.90
2022-11-03T07:49:27.697Z,8.80
2022-11-03T07:51:57.328Z,11.93
2022-11-03T07:54:30.015Z,8.63
2022-11-03T07:57:00.927Z,8.63
2022-11-03T07:59:33.379Z,8.20
2022-11-03T08:02:03.888Z,7.05
2022-11-03T08:04:34.647Z,9.23
2022-11-03T08:07:02.655Z,5.13
2022-11-03T08:09:30.543Z,8.85
2022-11-03T08:11:58.431Z,10.88
2022-11-03T08:14:26.366Z,10.48
2022-11-03T08:16:54.323Z,5.73
2022-11-03T08:19:23.607Z,11.25
2022-11-03T08:21:51.628Z,6.85
2022-11-03T08:24:19.559Z,7.65
2022-11-03T08:26:47.505Z,10.07
2022-11-03T08:29:17.517Z,7.47
2022-11-03T08:31:45.697Z,9.25
2022-11-03T08:34:13.628Z,11.20
2022-11-03T08:36:42.888Z,7.87
2022-11-03T08:39:10.771Z,11.50
2022-11-03T08:41:38.746Z,11.20
2022-11-03T08:44:07.004Z,13.20
2022-11-03T08:46:35.232Z,9.40
2022-11-03T08:49:03.223Z,8.57
2022-11-03T08:51:31.115Z,8.43
2022-11-03T08:54:00.345Z,9.95
2022-11-03T08:56:28.233Z,10.65
2022-11-03T08:58:56.119Z,12.02
2022-11-03T09:01:24.063Z,12.07
2022-11-03T09:03:52.024Z,12.13
2022-11-03T09:06:19.948Z,9.18
2022-11-03T09:11:37.169Z,10.47
2022-11-03T09:14:05.067Z,9.13
2022-11-03T09:16:33.043Z,11.70
2022-11-03T09:19:00.932Z,12.40
2022-11-03T09:21:28.792Z,5.00
2022-11-03T09:23:59.328Z,8.02
2022-11-03T09:26:27.393Z,5.75
2022-11-03T09:28:56.595Z,10.18
2022-11-03T09:31:26.001Z,9.52
2022-11-03T09:33:53.930Z,9.82
2022-11-03T09:36:21.816Z,9.93
2022-11-03T09:38:49.744Z,6.97
2022-11-03T09:41:26.296Z,6.37
2022-11-03T09:43:58.582Z,9.55
2022-11-03T09:46:28.223Z,9.57
2022-11-03T09:48:57.455Z,12.35
2022-11-03T09:51:27.753Z,12.70
2022-11-03T09:53:59.010Z,10.97
2022-11-03T09:56:27.884Z,7.55
2022-11-03T09:58:57.231Z,9.20
2022-11-03T10:01:25.327Z,11.90
2022-11-03T10:03:55.699Z,8.80
2022-11-03T10:06:23.619Z,7.47
2022-11-03T10:08:51.657Z,9.90
2022-11-03T10:11:19.628Z,6.97
2022-11-03T10:13:49.411Z,11.85
2022-11-03T10:16:21.648Z,6.03
2022-11-03T10:18:50.273Z,10.52
2022-11-03T10:21:20.074Z,11.70
2022-11-03T10:23:50.140Z,10.88
2022-11-03T10:26:19.866Z,8.05
2022-11-03T10:29:00.173Z,9.35
2022-11-03T10:31:36.019Z,8.30
2022-11-03T10:34:05.053Z,11.13
2022-11-03T10:36:34.342Z,4.25
2022-11-03T10:39:24.921Z,7.55
2022-11-03T10:41:58.462Z,6.68
2022-11-03T10:44:28.612Z,7.70
2022-11-03T10:47:02.193Z,10.77
2022-11-03T10:49:31.359Z,5.63
2022-11-03T10:52:16.081Z,10.45
2022-11-03T10:54:44.036Z,6.30
2022-11-03T10:57:12.016Z,10.38
2022-11-03T10:59:41.049Z,10.68
2022-11-03T11:02:18.441Z,8.95
2022-11-03T11:04:48.872Z,10.43
2022-11-03T11:07:23.251Z,11.23
2022-11-03T11:09:51.228Z,7.50
2022-11-03T11:12:22.313Z,7.75
2022-11-03T11:14:57.651Z,8.68
2022-11-03T11:17:47.277Z,8.07
2022-11-03T11:20:34.368Z,9.18
2022-11-03T11:23:52.681Z,6.97
2022-11-03T11:26:41.762Z,5.80
2022-11-03T11:29:43.379Z,10.30
2022-11-03T11:32:53.468Z,7.80
2022-11-03T11:36:04.017Z,7.45
2022-11-03T11:39:01.395Z,5.28
2022-11-03T11:42:06.986Z,9.45
2022-11-03T11:44:53.453Z,6.90
2022-11-03T11:47:27.221Z,8.23
2022-11-03T11:50:22.927Z,6.10
2022-11-03T11:52:54.762Z,7.05
2022-11-03T11:55:31.924Z,5.50
2022-11-03T11:58:01.628Z,5.00
2022-11-03T12:00:32.129Z,6.00
2022-11-03T12:03:02.247Z,5.65
2022-11-03T12:05:32.634Z,6.00
2022-11-03T12:08:01.223Z,6.00
2022-11-03T12:10:31.630Z,6.40
2022-11-03T12:13:01.713Z,6.20
2022-11-03T12:15:55.375Z,6.70
2022-11-03T12:18:39.218Z,4.32
2022-11-03T12:21:09.773Z,4.78
2022-11-03T12:23:41.194Z,4.07
2022-11-03T12:26:18.838Z,5.63
2022-11-03T12:28:46.964Z,6.90
2022-11-03T12:31:14.870Z,4.90
2022-11-03T12:33:42.764Z,3.40
2022-11-03T12:36:11.218Z,4.30
2022-11-03T12:38:39.245Z,10.13
2022-11-03T12:41:24.412Z,7.50
2022-11-03T12:43:55.896Z,4.47
2022-11-03T12:46:24.147Z,7.10
2022-11-03T12:48:52.569Z,5.55
2022-11-03T12:51:21.998Z,4.60
2022-11-03T12:53:50.257Z,6.50
2022-11-03T12:56:20.172Z,5.15
2022-11-03T12:58:48.185Z,4.00
2022-11-03T13:01:18.829Z,5.13
2022-11-03T13:03:46.835Z,5.97
2022-11-03T13:06:14.932Z,6.57
2022-11-03T13:08:44.726Z,3.53
2022-11-03T13:11:28.474Z,6.07
2022-11-03T13:13:56.787Z,3.83
2022-11-03T13:16:26.266Z,4.88
2022-11-03T13:18:54.158Z,5.05
2022-11-03T13:21:22.137Z,6.85
2022-11-03T13:23:50.081Z,5.95
2022-11-03T13:26:18.033Z,3.17
2022-11-03T13:28:46.384Z,5.53
2022-11-03T13:31:14.309Z,3.83
2022-11-03T13:33:43.585Z,6.65
2022-11-03T13:36:11.587Z,2.70
2022-11-03T13:38:39.588Z,4.40
2022-11-03T13:41:09.216Z,6.00
2022-11-03T13:43:37.600Z,5.72
2022-11-03T13:46:05.619Z,6.13
2022-11-03T13:51:22.912Z,4.43
2022-11-03T13:59:27.845Z,2.13
2022-11-03T14:04:44.937Z,4.47
2022-11-03T14:07:14.535Z,6.93
2022-11-03T14:09:42.555Z,3.83
2022-11-03T14:12:27.739Z,3.80
2022-11-03T14:14:55.675Z,4.10
2022-11-03T14:17:24.538Z,4.95
2022-11-03T14:19:56.532Z,6.43
2022-11-03T14:22:27.203Z,4.75
2022-11-03T14:24:55.141Z,5.00
2022-11-03T14:27:23.144Z,5.10
2022-11-03T14:29:51.169Z,3.95
2022-11-03T14:32:19.987Z,4.70
2022-11-03T14:34:48.572Z,6.68
2022-11-03T14:37:16.952Z,3.08
2022-11-03T14:39:46.303Z,3.75
2022-11-03T14:42:15.783Z,2.88
2022-11-03T14:44:45.614Z,4.38
2022-11-03T14:47:17.545Z,2.58
2022-11-03T14:49:46.119Z,6.05
2022-11-03T14:52:14.822Z,3.22
2022-11-03T14:54:43.233Z,3.17
2022-11-03T14:57:12.531Z,3.10
2022-11-03T14:59:40.436Z,7.03
2022-11-03T15:02:08.483Z,3.33
2022-11-03T15:04:36.531Z,3.67
2022-11-03T15:07:04.542Z,3.88
2022-11-03T15:09:32.462Z,4.00
2022-11-03T15:12:00.335Z,7.32
2022-11-03T15:14:29.936Z,6.03
2022-11-03T15:16:57.814Z,5.60
2022-11-03T15:19:25.847Z,4.10
2022-11-03T15:21:53.782Z,3.65
2022-11-03T15:27:09.850Z,7.70
2022-11-03T15:29:39.137Z,4.15
2022-11-03T15:32:07.264Z,3.10
2022-11-03T15:34:35.417Z,6.53
2022-11-03T15:37:03.344Z,3.03
2022-11-03T15:39:31.283Z,3.97
2022-11-03T15:42:00.256Z,3.50
2022-11-03T15:44:28.309Z,6.80
2022-11-03T15:46:57.533Z,4.45
2022-11-03T15:49:25.573Z,5.53
2022-11-03T15:51:53.511Z,3.50
2022-11-03T15:54:21.407Z,2.85
2022-11-03T15:56:49.934Z,3.63
2022-11-03T15:59:18.649Z,2.55
2022-11-03T16:01:46.607Z,4.78
2022-11-03T16:04:16.756Z,4.25
2022-11-03T16:09:32.593Z,6.45
2022-11-03T16:12:00.899Z,4.25
2022-11-03T16:14:30.367Z,5.53
2022-11-03T16:16:58.594Z,2.55
2022-11-03T16:19:27.906Z,3.60
2022-11-03T16:21:55.813Z,4.70
2022-11-03T16:24:29.598Z,3.47
2022-11-03T16:27:03.050Z,4.45
2022-11-03T16:29:31.146Z,5.70
2022-11-03T16:31:59.112Z,3.03
2022-11-03T16:34:28.936Z,3.70
2022-11-03T16:36:57.254Z,5.88
2022-11-03T16:39:25.178Z,5.03
2022-11-03T16:41:54.792Z,4.83
2022-11-03T16:44:23.135Z,5.60
2022-11-03T16:46:51.313Z,6.65
2022-11-03T16:49:19.212Z,3.60
2022-11-03T16:51:48.497Z,6.32
2022-11-03T16:54:16.434Z,6.40
2022-11-03T16:56:45.161Z,6.22
2022-11-03T16:59:13.115Z,4.50
2022-11-03T17:01:41.404Z,5.15
2022-11-03T17:04:09.473Z,5.43
2022-11-03T17:06:37.574Z,6.20
2022-11-03T17:09:06.829Z,4.07
2022-11-03T17:11:37.393Z,3.17
2022-11-03T17:14:06.782Z,5.10
2022-11-03T17:16:35.200Z,5.57
2022-11-03T17:19:03.318Z,3.90
2022-11-03T17:21:31.838Z,5.10
2022-11-03T17:23:59.980Z,6.57
2022-11-03T17:26:37.752Z,7.07
2022-11-03T17:29:16.337Z,4.55
2022-11-03T17:31:44.373Z,4.28
2022-11-03T17:34:13.230Z,4.63
2022-11-03T17:36:41.515Z,4.07
2022-11-03T17:39:11.630Z,4.95
2022-11-03T17:41:40.931Z,4.15
2022-11-03T17:44:12.342Z,3.67
2022-11-03T17:46:42.493Z,5.57
2022-11-03T17:49:10.387Z,5.40
2022-11-03T17:51:42.996Z,3.33
2022-11-03T17:54:16.944Z,8.63
2022-11-03T17:56:46.357Z,4.32
2022-11-03T17:59:16.510Z,4.85
2022-11-03T18:01:45.399Z,5.88
2022-11-03T18:06:43.175Z,4.78
2022-11-03T18:09:11.133Z,3.47
2022-11-03T18:11:58.628Z,5.70
2022-11-03T18:14:29.884Z,4.55
2022-11-03T18:16:59.037Z,4.72
2022-11-03T18:19:27.082Z,4.90
2022-11-03T18:21:55.088Z,4.50
2022-11-03T18:24:23.004Z,4.40
2022-11-03T18:26:50.989Z,4.03
2022-11-03T18:29:18.905Z,8.02
2022-11-03T18:31:50.360Z,3.80
2022-11-03T18:34:21.976Z,4.40
2022-11-03T18:36:50.322Z,4.87
2022-11-03T18:39:22.869Z,7.10
2022-11-03T18:41:50.999Z,5.35
2022-11-03T18:44:21.431Z,4.18
2022-11-03T18:46:52.268Z,3.65
2022-11-03T18:49:20.681Z,4.28
2022-11-03T18:51:50.873Z,6.20
2022-11-03T18:54:21.681Z,4.90
2022-11-03T18:56:50.174Z,5.20
2022-11-03T18:59:22.310Z,4.63
2022-11-03T19:01:54.291Z,6.35
2022-11-03T19:04:22.469Z,5.90
2022-11-03T19:06:52.773Z,5.60
2022-11-03T19:09:24.557Z,4.43
2022-11-03T19:11:55.377Z,4.80
2022-11-03T19:14:26.383Z,7.57
2022-11-03T19:19:44.944Z,5.60
2022-11-03T19:22:14.048Z,6.33
2022-11-03T19:24:42.250Z,8.23
2022-11-03T19:27:16.471Z,6.83
2022-11-03T19:29:46.965Z,4.77
2022-11-03T19:32:21.780Z,8.35
2022-11-03T19:34:55.289Z,6.57
2022-11-03T19:37:23.374Z,5.90
2022-11-03T19:39:51.368Z,6.13
2022-11-03T19:42:33.018Z,7.38
2022-11-03T19:45:02.884Z,6.13
2022-11-03T19:47:36.913Z,4.60
2022-11-03T19:50:07.406Z,5.28
2022-11-03T19:52:35.892Z,5.22
2022-11-03T19:55:06.354Z,9.55
2022-11-03T19:57:34.299Z,5.60
2022-11-03T20:00:03.584Z,6.57
2022-11-03T20:02:33.026Z,8.48
2022-11-03T20:05:01.109Z,5.55
2022-11-03T20:07:31.905Z,6.35
2022-11-03T20:10:02.115Z,8.10
2022-11-03T20:12:30.881Z,6.07
2022-11-03T20:14:58.997Z,7.03
2022-11-03T20:17:27.225Z,5.80
2022-11-03T20:19:56.551Z,5.20
2022-11-03T20:22:29.386Z,5.17
2022-11-03T20:25:00.034Z,7.10
2022-11-03T20:27:28.468Z,7.20
2022-11-03T20:29:56.575Z,5.20
2022-11-03T20:32:24.466Z,5.40
2022-11-03T20:34:52.376Z,4.47
2022-11-03T20:37:22.007Z,5.80
2022-11-03T20:39:50.044Z,4.47
2022-11-03T20:42:23.172Z,4.35
2022-11-03T20:44:51.165Z,3.47
2022-11-03T20:47:19.803Z,4.20
2022-11-03T20:49:48.417Z,5.90
2022-11-03T20:52:17.159Z,3.53
2022-11-03T20:54:46.468Z,3.05
2022-11-03T20:57:14.611Z,5.50
2022-11-03T20:59:42.601Z,3.65
2022-11-03T21:02:12.957Z,2.58
2022-11-03T21:04:41.582Z,3.60
2022-11-03T21:07:12.621Z,3.45
2022-11-03T21:09:40.732Z,4.00
2022-11-03T21:12:14.498Z,3.30
2022-11-03T21:15:05.096Z,3.20
2022-11-03T21:17:50.447Z,1.60
2022-11-03T21:20:18.447Z,2.00
2022-11-03T21:22:52.519Z,3.78
2022-11-03T21:25:23.288Z,3.20
2022-11-03T21:27:54.147Z,3.03
2022-11-03T21:30:23.388Z,1.80
2022-11-03T21:32:51.583Z,4.18
2022-11-03T21:35:22.074Z,1.40
2022-11-03T21:37:50.277Z,1.60
2022-11-03T21:40:18.694Z,7.15
2022-11-03T21:43:04.240Z,3.90
2022-11-03T21:45:33.746Z,3.88
2022-11-03T21:48:19.901Z,2.03
2022-11-03T21:50:48.106Z,3.23
2022-11-03T21:53:16.012Z,1.77
2022-11-03T21:55:44.088Z,3.75
2022-11-03T21:58:11.991Z,2.45
2022-11-03T22:00:41.293Z,3.15
2022-11-03T22:03:09.592Z,3.35
2022-11-03T22:05:37.898Z,3.50
2022-11-03T22:08:08.772Z,2.88
2022-11-03T22:10:39.435Z,2.40
2022-11-03T22:13:07.658Z,2.80
2022-11-03T22:15:53.513Z,4.90
2022-11-03T22:18:22.887Z,3.20
2022-11-03T22:21:08.401Z,3.47
2022-11-03T22:23:53.795Z,5.03
2022-11-03T22:26:39.321Z,1.80
2022-11-03T22:29:24.735Z,3.20
2022-11-03T22:31:52.619Z,4.27
2022-11-03T22:34:39.318Z,3.50
2022-11-03T22:37:07.252Z,3.15
2022-11-03T22:39:52.683Z,2.80
2022-11-03T22:42:38.264Z,2.60
2022-11-03T22:45:24.384Z,2.75
2022-11-03T22:47:57.325Z,2.00
2022-11-03T22:50:27.099Z,3.53
2022-11-03T22:52:54.987Z,4.57
2022-11-03T22:55:22.203Z,3.17
2022-11-03T22:57:50.135Z,2.60
2022-11-03T23:00:20.338Z,4.35
2022-11-03T23:02:48.281Z,4.03
2022-11-03T23:05:16.353Z,2.05
2022-11-03T23:07:45.692Z,3.63
2022-11-03T23:10:13.612Z,2.40
2022-11-03T23:12:41.518Z,3.60
2022-11-03T23:15:27.461Z,3.15
2022-11-03T23:18:13.049Z,1.27
2022-11-03T23:20:58.586Z,1.83
2022-11-03T23:23:45.241Z,4.63
2022-11-03T23:26:13.233Z,1.83
2022-11-03T23:28:41.391Z,1.90
2022-11-03T23:31:09.471Z,2.50
2022-11-03T23:33:37.632Z,4.80
2022-11-03T23:36:06.348Z,2.90
2022-11-03T23:38:36.911Z,2.60
2022-11-03T23:41:06.243Z,2.70
2022-11-03T23:43:34.687Z,1.67
2022-11-03T23:46:20.289Z,4.95
2022-11-03T23:48:48.229Z,2.70
2022-11-03T23:51:17.712Z,1.50
2022-11-03T23:53:47.334Z,1.38
2022-11-03T23:56:36.878Z,2.03
2022-11-03T23:59:05.352Z,1.27
